sensor_id;sensor_type;location;lat;lon;timestamp;P1;durP1;ratioP1;P2;durP2;ratioP2
19971;SDS011;10147;16.402;102.848;2023-12-28T00:01:52;229.32;;;205.60;;
19971;SDS011;10147;16.402;102.848;2023-12-28T00:04:22;74.53;;;66.28;;
19971;SDS011;10147;16.402;102.848;2023-12-28T00:06:52;53.00;;;47.33;;
19971;SDS011;10147;16.402;102.848;2023-12-28T00:09:22;54.40;;;48.65;;
19971;SDS011;10147;16.402;102.848;2023-12-28T00:11:53;51.40;;;45.40;;
19971;SDS011;10147;16.402;102.848;2023-12-28T00:14:23;48.25;;;43.15;;
19971;SDS011;10147;16.402;102.848;2023-12-28T00:16:53;48.20;;;39.83;;
19971;SDS011;10147;16.402;102.848;2023-12-28T00:19:23;44.92;;;36.83;;
19971;SDS011;10147;16.402;102.848;2023-12-28T00:21:53;43.83;;;37.72;;
19971;SDS011;10147;16.402;102.848;2023-12-28T00:24:23;70.20;;;55.22;;
19971;SDS011;10147;16.402;102.848;2023-12-28T00:26:53;63.20;;;51.58;;
19971;SDS011;10147;16.402;102.848;2023-12-28T00:29:23;42.75;;;35.78;;
19971;SDS011;10147;16.402;102.848;2023-12-28T00:31:53;44.33;;;36.83;;
19971;SDS011;10147;16.402;102.848;2023-12-28T00:34:22;42.78;;;35.85;;
19971;SDS011;10147;16.402;102.848;2023-12-28T00:36:53;37.88;;;33.38;;
19971;SDS011;10147;16.402;102.848;2023-12-28T00:39:22;39.15;;;31.70;;
19971;SDS011;10147;16.402;102.848;2023-12-28T00:41:52;36.97;;;30.70;;
19971;SDS011;10147;16.402;102.848;2023-12-28T00:44:22;38.42;;;30.20;;
19971;SDS011;10147;16.402;102.848;2023-12-28T00:46:52;38.47;;;28.48;;
19971;SDS011;10147;16.402;102.848;2023-12-28T00:49:22;36.78;;;29.02;;
19971;SDS011;10147;16.402;102.848;2023-12-28T00:51:53;36.42;;;29.52;;
19971;SDS011;10147;16.402;102.848;2023-12-28T00:54:23;35.53;;;28.95;;
19971;SDS011;10147;16.402;102.848;2023-12-28T00:56:53;34.75;;;27.90;;
19971;SDS011;10147;16.402;102.848;2023-12-28T00:59:23;36.35;;;28.27;;
19971;SDS011;10147;16.402;102.848;2023-12-28T01:01:52;35.13;;;29.63;;
19971;SDS011;10147;16.402;102.848;2023-12-28T01:04:22;34.58;;;29.67;;
19971;SDS011;10147;16.402;102.848;2023-12-28T01:06:52;37.10;;;28.85;;
19971;SDS011;10147;16.402;102.848;2023-12-28T01:09:22;39.83;;;29.73;;
19971;SDS011;10147;16.402;102.848;2023-12-28T01:11:52;36.40;;;28.55;;
19971;SDS011;10147;16.402;102.848;2023-12-28T01:14:23;37.55;;;29.73;;
19971;SDS011;10147;16.402;102.848;2023-12-28T01:16:53;33.25;;;28.70;;
19971;SDS011;10147;16.402;102.848;2023-12-28T01:19:23;34.67;;;28.92;;
19971;SDS011;10147;16.402;102.848;2023-12-28T01:21:54;37.42;;;30.38;;
19971;SDS011;10147;16.402;102.848;2023-12-28T01:24:25;42.72;;;31.83;;
19971;SDS011;10147;16.402;102.848;2023-12-28T01:26:55;39.05;;;30.88;;
19971;SDS011;10147;16.402;102.848;2023-12-28T01:29:25;42.95;;;30.80;;
19971;SDS011;10147;16.402;102.848;2023-12-28T01:31:55;38.53;;;31.50;;
19971;SDS011;10147;16.402;102.848;2023-12-28T01:34:25;39.38;;;29.85;;
19971;SDS011;10147;16.402;102.848;2023-12-28T01:36:55;37.80;;;28.55;;
19971;SDS011;10147;16.402;102.848;2023-12-28T01:39:25;33.22;;;28.40;;
19971;SDS011;10147;16.402;102.848;2023-12-28T01:41:55;33.72;;;26.50;;
19971;SDS011;10147;16.402;102.848;2023-12-28T01:44:25;30.65;;;26.02;;
19971;SDS011;10147;16.402;102.848;2023-12-28T01:46:55;34.92;;;26.23;;
19971;SDS011;10147;16.402;102.848;2023-12-28T01:49:25;30.60;;;25.38;;
19971;SDS011;10147;16.402;102.848;2023-12-28T01:51:56;28.67;;;23.77;;
19971;SDS011;10147;16.402;102.848;2023-12-28T01:54:28;29.58;;;24.95;;
19971;SDS011;10147;16.402;102.848;2023-12-28T01:56:59;29.58;;;24.20;;
19971;SDS011;10147;16.402;102.848;2023-12-28T01:59:31;30.48;;;25.35;;
19971;SDS011;10147;16.402;102.848;2023-12-28T02:02:01;28.65;;;24.33;;
19971;SDS011;10147;16.402;102.848;2023-12-28T02:04:32;28.73;;;24.50;;
19971;SDS011;10147;16.402;102.848;2023-12-28T02:07:02;31.92;;;24.83;;
19971;SDS011;10147;16.402;102.848;2023-12-28T02:09:32;33.53;;;25.70;;
19971;SDS011;10147;16.402;102.848;2023-12-28T02:12:04;29.70;;;24.65;;
19971;SDS011;10147;16.402;102.848;2023-12-28T02:14:35;28.65;;;23.08;;
19971;SDS011;10147;16.402;102.848;2023-12-28T02:17:22;32.45;;;24.50;;
19971;SDS011;10147;16.402;102.848;2023-12-28T02:19:57;27.50;;;23.50;;
19971;SDS011;10147;16.402;102.848;2023-12-28T02:22:28;28.23;;;23.90;;
19971;SDS011;10147;16.402;102.848;2023-12-28T02:27:48;26.20;;;21.25;;
19971;SDS011;10147;16.402;102.848;2023-12-28T02:30:20;24.08;;;20.65;;
19971;SDS011;10147;16.402;102.848;2023-12-28T02:32:54;21.75;;;19.38;;
19971;SDS011;10147;16.402;102.848;2023-12-28T02:36:02;23.73;;;19.52;;
19971;SDS011;10147;16.402;102.848;2023-12-28T02:38:38;27.33;;;19.52;;
19971;SDS011;10147;16.402;102.848;2023-12-28T02:41:09;21.92;;;18.05;;
19971;SDS011;10147;16.402;102.848;2023-12-28T02:43:40;26.88;;;19.85;;
19971;SDS011;10147;16.402;102.848;2023-12-28T02:46:10;26.25;;;19.52;;
19971;SDS011;10147;16.402;102.848;2023-12-28T02:48:40;24.58;;;19.80;;
19971;SDS011;10147;16.402;102.848;2023-12-28T02:51:11;22.42;;;19.08;;
19971;SDS011;10147;16.402;102.848;2023-12-28T02:53:41;24.95;;;19.95;;
19971;SDS011;10147;16.402;102.848;2023-12-28T02:56:11;26.80;;;19.23;;
19971;SDS011;10147;16.402;102.848;2023-12-28T02:58:41;31.13;;;21.58;;
19971;SDS011;10147;16.402;102.848;2023-12-28T03:01:11;28.25;;;21.25;;
19971;SDS011;10147;16.402;102.848;2023-12-28T03:03:42;22.48;;;19.35;;
19971;SDS011;10147;16.402;102.848;2023-12-28T03:06:12;25.45;;;21.20;;
19971;SDS011;10147;16.402;102.848;2023-12-28T03:08:42;21.75;;;19.42;;
19971;SDS011;10147;16.402;102.848;2023-12-28T03:11:12;55.88;;;50.67;;
19971;SDS011;10147;16.402;102.848;2023-12-28T03:13:46;57.38;;;52.17;;
19971;SDS011;10147;16.402;102.848;2023-12-28T03:16:17;21.38;;;19.08;;
19971;SDS011;10147;16.402;102.848;2023-12-28T03:18:47;22.15;;;18.00;;
19971;SDS011;10147;16.402;102.848;2023-12-28T03:21:17;18.55;;;16.25;;
19971;SDS011;10147;16.402;102.848;2023-12-28T03:23:46;18.00;;;16.20;;
19971;SDS011;10147;16.402;102.848;2023-12-28T03:26:23;19.30;;;17.02;;
19971;SDS011;10147;16.402;102.848;2023-12-28T03:28:53;34.92;;;30.25;;
19971;SDS011;10147;16.402;102.848;2023-12-28T03:31:23;19.40;;;14.70;;
19971;SDS011;10147;16.402;102.848;2023-12-28T03:33:53;17.52;;;15.73;;
19971;SDS011;10147;16.402;102.848;2023-12-28T03:36:23;18.70;;;13.63;;
19971;SDS011;10147;16.402;102.848;2023-12-28T03:38:52;16.98;;;15.18;;
19971;SDS011;10147;16.402;102.848;2023-12-28T03:41:22;14.68;;;12.27;;
19971;SDS011;10147;16.402;102.848;2023-12-28T03:43:52;17.52;;;13.30;;
19971;SDS011;10147;16.402;102.848;2023-12-28T03:46:22;17.13;;;14.82;;
19971;SDS011;10147;16.402;102.848;2023-12-28T03:48:52;13.77;;;12.38;;
19971;SDS011;10147;16.402;102.848;2023-12-28T03:51:23;10.55;;;9.35;;
19971;SDS011;10147;16.402;102.848;2023-12-28T03:53:53;9.70;;;8.32;;
19971;SDS011;10147;16.402;102.848;2023-12-28T03:56:23;10.18;;;9.10;;
19971;SDS011;10147;16.402;102.848;2023-12-28T03:58:54;11.25;;;9.18;;
19971;SDS011;10147;16.402;102.848;2023-12-28T04:01:24;9.82;;;8.73;;
19971;SDS011;10147;16.402;102.848;2023-12-28T04:03:54;9.98;;;8.63;;
19971;SDS011;10147;16.402;102.848;2023-12-28T04:06:24;9.18;;;8.13;;
19971;SDS011;10147;16.402;102.848;2023-12-28T04:08:56;9.05;;;8.15;;
19971;SDS011;10147;16.402;102.848;2023-12-28T04:11:26;9.52;;;8.63;;
19971;SDS011;10147;16.402;102.848;2023-12-28T04:13:58;16.73;;;15.43;;
19971;SDS011;10147;16.402;102.848;2023-12-28T04:16:30;9.15;;;8.00;;
19971;SDS011;10147;16.402;102.848;2023-12-28T04:19:01;10.57;;;6.82;;
19971;SDS011;10147;16.402;102.848;2023-12-28T04:21:32;10.25;;;7.55;;
19971;SDS011;10147;16.402;102.848;2023-12-28T04:24:03;8.10;;;7.30;;
19971;SDS011;10147;16.402;102.848;2023-12-28T04:26:33;10.88;;;8.32;;
19971;SDS011;10147;16.402;102.848;2023-12-28T04:29:03;7.30;;;6.70;;
19971;SDS011;10147;16.402;102.848;2023-12-28T04:31:33;8.32;;;7.55;;
19971;SDS011;10147;16.402;102.848;2023-12-28T04:34:09;10.05;;;7.38;;
19971;SDS011;10147;16.402;102.848;2023-12-28T04:36:40;7.82;;;6.82;;
19971;SDS011;10147;16.402;102.848;2023-12-28T04:39:13;11.70;;;8.13;;
19971;SDS011;10147;16.402;102.848;2023-12-28T04:41:43;9.60;;;8.07;;
19971;SDS011;10147;16.402;102.848;2023-12-28T04:44:13;8.00;;;7.35;;
19971;SDS011;10147;16.402;102.848;2023-12-28T04:46:44;7.65;;;6.95;;
19971;SDS011;10147;16.402;102.848;2023-12-28T04:49:14;10.38;;;9.48;;
19971;SDS011;10147;16.402;102.848;2023-12-28T04:51:45;7.47;;;6.70;;
19971;SDS011;10147;16.402;102.848;2023-12-28T04:54:15;8.02;;;7.32;;
19971;SDS011;10147;16.402;102.848;2023-12-28T04:56:45;9.48;;;8.50;;
19971;SDS011;10147;16.402;102.848;2023-12-28T04:59:15;10.05;;;9.05;;
19971;SDS011;10147;16.402;102.848;2023-12-28T05:01:45;8.68;;;7.40;;
19971;SDS011;10147;16.402;102.848;2023-12-28T05:04:15;8.00;;;7.20;;
19971;SDS011;10147;16.402;102.848;2023-12-28T05:06:45;7.82;;;6.00;;
19971;SDS011;10147;16.402;102.848;2023-12-28T05:09:14;7.28;;;6.35;;
19971;SDS011;10147;16.402;102.848;2023-12-28T05:11:44;6.85;;;6.15;;
19971;SDS011;10147;16.402;102.848;2023-12-28T05:14:16;26.00;;;23.75;;
19971;SDS011;10147;16.402;102.848;2023-12-28T05:16:46;22.13;;;20.25;;
19971;SDS011;10147;16.402;102.848;2023-12-28T05:19:16;6.82;;;6.20;;
19971;SDS011;10147;16.402;102.848;2023-12-28T05:21:47;6.80;;;6.20;;
19971;SDS011;10147;16.402;102.848;2023-12-28T05:24:17;11.05;;;6.53;;
19971;SDS011;10147;16.402;102.848;2023-12-28T05:26:47;9.82;;;6.82;;
19971;SDS011;10147;16.402;102.848;2023-12-28T05:29:17;7.65;;;6.85;;
19971;SDS011;10147;16.402;102.848;2023-12-28T05:31:47;8.73;;;7.30;;
19971;SDS011;10147;16.402;102.848;2023-12-28T05:34:16;8.10;;;7.22;;
19971;SDS011;10147;16.402;102.848;2023-12-28T05:36:46;8.95;;;7.68;;
19971;SDS011;10147;16.402;102.848;2023-12-28T05:39:16;10.23;;;8.32;;
19971;SDS011;10147;16.402;102.848;2023-12-28T05:41:46;9.98;;;7.88;;
19971;SDS011;10147;16.402;102.848;2023-12-28T05:44:19;13.98;;;11.90;;
19971;SDS011;10147;16.402;102.848;2023-12-28T05:46:49;7.68;;;6.97;;
19971;SDS011;10147;16.402;102.848;2023-12-28T05:49:21;9.50;;;7.15;;
19971;SDS011;10147;16.402;102.848;2023-12-28T05:51:51;7.38;;;6.72;;
19971;SDS011;10147;16.402;102.848;2023-12-28T05:54:21;7.20;;;6.50;;
19971;SDS011;10147;16.402;102.848;2023-12-28T05:56:50;7.50;;;6.80;;
19971;SDS011;10147;16.402;102.848;2023-12-28T05:59:20;7.43;;;6.82;;
19971;SDS011;10147;16.402;102.848;2023-12-28T06:01:50;8.10;;;7.30;;
19971;SDS011;10147;16.402;102.848;2023-12-28T06:04:20;9.48;;;8.35;;
19971;SDS011;10147;16.402;102.848;2023-12-28T06:06:50;8.30;;;7.53;;
19971;SDS011;10147;16.402;102.848;2023-12-28T06:09:20;7.85;;;7.13;;
19971;SDS011;10147;16.402;102.848;2023-12-28T06:11:50;13.93;;;7.82;;
19971;SDS011;10147;16.402;102.848;2023-12-28T06:14:22;8.70;;;7.80;;
19971;SDS011;10147;16.402;102.848;2023-12-28T06:16:52;10.80;;;7.63;;
19971;SDS011;10147;16.402;102.848;2023-12-28T06:19:22;8.18;;;6.97;;
19971;SDS011;10147;16.402;102.848;2023-12-28T06:21:52;8.68;;;7.70;;
19971;SDS011;10147;16.402;102.848;2023-12-28T06:24:22;8.80;;;7.53;;
19971;SDS011;10147;16.402;102.848;2023-12-28T06:26:52;45.13;;;10.20;;
19971;SDS011;10147;16.402;102.848;2023-12-28T06:29:23;16.60;;;8.63;;
19971;SDS011;10147;16.402;102.848;2023-12-28T06:31:53;10.85;;;8.43;;
19971;SDS011;10147;16.402;102.848;2023-12-28T06:34:22;9.52;;;8.35;;
19971;SDS011;10147;16.402;102.848;2023-12-28T06:36:54;8.98;;;8.15;;
19971;SDS011;10147;16.402;102.848;2023-12-28T06:39:24;9.40;;;8.50;;
19971;SDS011;10147;16.402;102.848;2023-12-28T06:41:54;10.75;;;8.25;;
19971;SDS011;10147;16.402;102.848;2023-12-28T06:44:24;9.60;;;8.40;;
19971;SDS011;10147;16.402;102.848;2023-12-28T06:46:56;10.00;;;8.27;;
19971;SDS011;10147;16.402;102.848;2023-12-28T06:49:27;9.30;;;8.40;;
19971;SDS011;10147;16.402;102.848;2023-12-28T06:51:56;9.38;;;8.48;;
19971;SDS011;10147;16.402;102.848;2023-12-28T06:54:26;9.13;;;8.32;;
19971;SDS011;10147;16.402;102.848;2023-12-28T06:56:56;10.32;;;8.23;;
19971;SDS011;10147;16.402;102.848;2023-12-28T06:59:26;9.10;;;8.20;;
19971;SDS011;10147;16.402;102.848;2023-12-28T07:01:56;9.68;;;8.73;;
19971;SDS011;10147;16.402;102.848;2023-12-28T07:04:26;9.60;;;8.80;;
19971;SDS011;10147;16.402;102.848;2023-12-28T07:06:58;11.95;;;9.10;;
19971;SDS011;10147;16.402;102.848;2023-12-28T07:09:28;10.38;;;9.02;;
19971;SDS011;10147;16.402;102.848;2023-12-28T07:11:58;9.68;;;8.68;;
19971;SDS011;10147;16.402;102.848;2023-12-28T07:14:28;9.73;;;8.48;;
19971;SDS011;10147;16.402;102.848;2023-12-28T07:16:59;9.43;;;8.52;;
19971;SDS011;10147;16.402;102.848;2023-12-28T07:19:29;9.73;;;8.75;;
19971;SDS011;10147;16.402;102.848;2023-12-28T07:21:59;9.38;;;8.43;;
19971;SDS011;10147;16.402;102.848;2023-12-28T07:24:29;10.18;;;9.15;;
19971;SDS011;10147;16.402;102.848;2023-12-28T07:27:04;10.00;;;9.00;;
19971;SDS011;10147;16.402;102.848;2023-12-28T07:29:34;12.98;;;9.80;;
19971;SDS011;10147;16.402;102.848;2023-12-28T07:32:08;11.05;;;10.02;;
19971;SDS011;10147;16.402;102.848;2023-12-28T07:34:39;10.82;;;9.73;;
19971;SDS011;10147;16.402;102.848;2023-12-28T07:37:09;10.05;;;8.95;;
19971;SDS011;10147;16.402;102.848;2023-12-28T07:39:39;13.70;;;11.05;;
19971;SDS011;10147;16.402;102.848;2023-12-28T07:42:09;12.13;;;10.20;;
19971;SDS011;10147;16.402;102.848;2023-12-28T07:44:39;11.35;;;9.27;;
19971;SDS011;10147;16.402;102.848;2023-12-28T07:47:09;11.10;;;9.98;;
19971;SDS011;10147;16.402;102.848;2023-12-28T07:49:41;12.30;;;10.25;;
19971;SDS011;10147;16.402;102.848;2023-12-28T07:52:11;12.45;;;10.00;;
19971;SDS011;10147;16.402;102.848;2023-12-28T07:54:41;13.50;;;10.75;;
19971;SDS011;10147;16.402;102.848;2023-12-28T07:57:11;12.07;;;10.75;;
19971;SDS011;10147;16.402;102.848;2023-12-28T07:59:41;11.88;;;10.68;;
19971;SDS011;10147;16.402;102.848;2023-12-28T08:02:12;11.73;;;10.45;;
19971;SDS011;10147;16.402;102.848;2023-12-28T08:04:45;12.75;;;11.30;;
19971;SDS011;10147;16.402;102.848;2023-12-28T08:07:15;11.25;;;10.15;;
19971;SDS011;10147;16.402;102.848;2023-12-28T08:09:45;12.57;;;10.23;;
19971;SDS011;10147;16.402;102.848;2023-12-28T08:12:15;11.55;;;10.00;;
19971;SDS011;10147;16.402;102.848;2023-12-28T08:14:48;13.68;;;10.27;;
19971;SDS011;10147;16.402;102.848;2023-12-28T08:17:18;14.05;;;10.25;;
19971;SDS011;10147;16.402;102.848;2023-12-28T08:19:48;12.52;;;10.02;;
19971;SDS011;10147;16.402;102.848;2023-12-28T08:22:19;13.57;;;9.25;;
19971;SDS011;10147;16.402;102.848;2023-12-28T08:24:49;12.25;;;9.45;;
19971;SDS011;10147;16.402;102.848;2023-12-28T08:27:19;10.55;;;9.45;;
19971;SDS011;10147;16.402;102.848;2023-12-28T08:29:49;13.35;;;9.65;;
19971;SDS011;10147;16.402;102.848;2023-12-28T08:32:19;13.23;;;10.27;;
19971;SDS011;10147;16.402;102.848;2023-12-28T08:34:49;13.85;;;10.25;;
19971;SDS011;10147;16.402;102.848;2023-12-28T08:37:19;13.85;;;10.70;;
19971;SDS011;10147;16.402;102.848;2023-12-28T08:39:49;12.65;;;10.65;;
19971;SDS011;10147;16.402;102.848;2023-12-28T08:42:19;12.90;;;11.60;;
19971;SDS011;10147;16.402;102.848;2023-12-28T08:44:49;12.32;;;11.00;;
19971;SDS011;10147;16.402;102.848;2023-12-28T08:47:20;12.75;;;11.27;;
19971;SDS011;10147;16.402;102.848;2023-12-28T08:49:50;15.95;;;11.23;;
19971;SDS011;10147;16.402;102.848;2023-12-28T08:52:21;15.82;;;11.23;;
19971;SDS011;10147;16.402;102.848;2023-12-28T08:54:51;14.93;;;10.98;;
19971;SDS011;10147;16.402;102.848;2023-12-28T08:57:21;14.13;;;10.30;;
19971;SDS011;10147;16.402;102.848;2023-12-28T09:00:08;14.55;;;10.07;;
19971;SDS011;10147;16.402;102.848;2023-12-28T09:02:39;12.45;;;8.95;;
19971;SDS011;10147;16.402;102.848;2023-12-28T09:05:10;10.30;;;9.18;;
19971;SDS011;10147;16.402;102.848;2023-12-28T09:07:40;10.52;;;9.43;;
19971;SDS011;10147;16.402;102.848;2023-12-28T09:10:12;13.25;;;9.73;;
19971;SDS011;10147;16.402;102.848;2023-12-28T09:12:42;14.02;;;10.13;;
19971;SDS011;10147;16.402;102.848;2023-12-28T09:15:13;15.30;;;10.10;;
19971;SDS011;10147;16.402;102.848;2023-12-28T09:17:44;12.15;;;9.68;;
19971;SDS011;10147;16.402;102.848;2023-12-28T09:20:14;14.98;;;10.90;;
19971;SDS011;10147;16.402;102.848;2023-12-28T09:22:44;13.80;;;11.27;;
19971;SDS011;10147;16.402;102.848;2023-12-28T09:25:15;16.55;;;11.80;;
19971;SDS011;10147;16.402;102.848;2023-12-28T09:27:44;13.95;;;12.38;;
19971;SDS011;10147;16.402;102.848;2023-12-28T09:30:14;20.17;;;11.52;;
19971;SDS011;10147;16.402;102.848;2023-12-28T09:32:44;12.02;;;10.77;;
19971;SDS011;10147;16.402;102.848;2023-12-28T09:35:14;14.82;;;10.95;;
19971;SDS011;10147;16.402;102.848;2023-12-28T09:37:44;13.90;;;10.60;;
19971;SDS011;10147;16.402;102.848;2023-12-28T09:40:16;16.80;;;11.10;;
19971;SDS011;10147;16.402;102.848;2023-12-28T09:42:48;14.15;;;10.63;;
19971;SDS011;10147;16.402;102.848;2023-12-28T09:45:27;13.48;;;10.55;;
19971;SDS011;10147;16.402;102.848;2023-12-28T09:47:56;12.52;;;10.18;;
19971;SDS011;10147;16.402;102.848;2023-12-28T09:50:27;14.75;;;9.88;;
19971;SDS011;10147;16.402;102.848;2023-12-28T09:52:56;12.80;;;10.60;;
19971;SDS011;10147;16.402;102.848;2023-12-28T09:55:27;13.70;;;10.30;;
19971;SDS011;10147;16.402;102.848;2023-12-28T09:57:58;12.30;;;10.35;;
19971;SDS011;10147;16.402;102.848;2023-12-28T10:00:34;17.50;;;16.00;;
19971;SDS011;10147;16.402;102.848;2023-12-28T10:03:04;16.70;;;15.20;;
19971;SDS011;10147;16.402;102.848;2023-12-28T10:05:36;12.05;;;9.10;;
19971;SDS011;10147;16.402;102.848;2023-12-28T10:08:05;14.43;;;12.82;;
19971;SDS011;10147;16.402;102.848;2023-12-28T10:10:35;16.05;;;13.35;;
19971;SDS011;10147;16.402;102.848;2023-12-28T10:13:06;14.27;;;11.10;;
19971;SDS011;10147;16.402;102.848;2023-12-28T10:15:39;10.68;;;9.32;;
19971;SDS011;10147;16.402;102.848;2023-12-28T10:18:12;12.45;;;9.65;;
19971;SDS011;10147;16.402;102.848;2023-12-28T10:20:42;14.07;;;9.52;;
19971;SDS011;10147;16.402;102.848;2023-12-28T10:23:12;10.75;;;9.60;;
19971;SDS011;10147;16.402;102.848;2023-12-28T10:25:42;17.42;;;9.60;;
19971;SDS011;10147;16.402;102.848;2023-12-28T10:28:14;13.65;;;10.23;;
19971;SDS011;10147;16.402;102.848;2023-12-28T10:30:48;15.38;;;10.32;;
19971;SDS011;10147;16.402;102.848;2023-12-28T10:33:25;12.23;;;10.73;;
19971;SDS011;10147;16.402;102.848;2023-12-28T10:35:55;16.85;;;9.95;;
19971;SDS011;10147;16.402;102.848;2023-12-28T10:38:28;15.55;;;11.63;;
19971;SDS011;10147;16.402;102.848;2023-12-28T10:41:07;20.67;;;11.10;;
19971;SDS011;10147;16.402;102.848;2023-12-28T10:46:39;13.60;;;11.07;;
19971;SDS011;10147;16.402;102.848;2023-12-28T10:49:11;15.98;;;13.02;;
19971;SDS011;10147;16.402;102.848;2023-12-28T10:51:42;21.88;;;18.13;;
19971;SDS011;10147;16.402;102.848;2023-12-28T10:57:27;23.15;;;16.23;;
19971;SDS011;10147;16.402;102.848;2023-12-28T11:00:07;22.13;;;16.08;;
19971;SDS011;10147;16.402;102.848;2023-12-28T11:02:51;23.10;;;17.55;;
19971;SDS011;10147;16.402;102.848;2023-12-28T11:05:22;34.17;;;30.98;;
19971;SDS011;10147;16.402;102.848;2023-12-28T11:07:53;33.58;;;30.35;;
19971;SDS011;10147;16.402;102.848;2023-12-28T11:10:27;20.50;;;17.20;;
19971;SDS011;10147;16.402;102.848;2023-12-28T11:12:58;21.08;;;17.15;;
19971;SDS011;10147;16.402;102.848;2023-12-28T11:15:30;23.95;;;18.92;;
19971;SDS011;10147;16.402;102.848;2023-12-28T11:18:02;24.85;;;20.08;;
19971;SDS011;10147;16.402;102.848;2023-12-28T11:20:32;26.42;;;20.52;;
19971;SDS011;10147;16.402;102.848;2023-12-28T11:23:03;24.00;;;19.25;;
19971;SDS011;10147;16.402;102.848;2023-12-28T11:25:34;32.72;;;22.80;;
19971;SDS011;10147;16.402;102.848;2023-12-28T11:28:10;28.85;;;21.02;;
19971;SDS011;10147;16.402;102.848;2023-12-28T11:30:42;24.17;;;19.30;;
19971;SDS011;10147;16.402;102.848;2023-12-28T11:33:12;25.58;;;19.58;;
19971;SDS011;10147;16.402;102.848;2023-12-28T11:35:42;27.90;;;19.90;;
19971;SDS011;10147;16.402;102.848;2023-12-28T11:38:16;34.55;;;22.17;;
19971;SDS011;10147;16.402;102.848;2023-12-28T11:40:47;31.33;;;21.75;;
19971;SDS011;10147;16.402;102.848;2023-12-28T11:43:19;32.22;;;22.20;;
19971;SDS011;10147;16.402;102.848;2023-12-28T11:45:50;28.65;;;22.90;;
19971;SDS011;10147;16.402;102.848;2023-12-28T11:48:24;34.88;;;22.23;;
19971;SDS011;10147;16.402;102.848;2023-12-28T11:50:57;28.55;;;21.58;;
19971;SDS011;10147;16.402;102.848;2023-12-28T11:53:28;31.05;;;22.90;;
19971;SDS011;10147;16.402;102.848;2023-12-28T11:56:01;34.70;;;22.77;;
19971;SDS011;10147;16.402;102.848;2023-12-28T11:58:32;32.80;;;23.50;;
19971;SDS011;10147;16.402;102.848;2023-12-28T12:01:02;37.08;;;23.40;;
19971;SDS011;10147;16.402;102.848;2023-12-28T12:03:32;46.75;;;23.67;;
19971;SDS011;10147;16.402;102.848;2023-12-28T12:06:03;38.33;;;24.35;;
19971;SDS011;10147;16.402;102.848;2023-12-28T12:08:33;46.10;;;25.25;;
19971;SDS011;10147;16.402;102.848;2023-12-28T12:11:05;38.90;;;24.40;;
19971;SDS011;10147;16.402;102.848;2023-12-28T12:13:35;33.97;;;24.30;;
19971;SDS011;10147;16.402;102.848;2023-12-28T12:16:05;46.95;;;30.25;;
19971;SDS011;10147;16.402;102.848;2023-12-28T12:18:38;49.75;;;31.88;;
19971;SDS011;10147;16.402;102.848;2023-12-28T12:21:09;67.07;;;41.40;;
19971;SDS011;10147;16.402;102.848;2023-12-28T12:23:41;98.35;;;67.30;;
19971;SDS011;10147;16.402;102.848;2023-12-28T12:26:11;156.50;;;95.97;;
19971;SDS011;10147;16.402;102.848;2023-12-28T12:28:42;97.22;;;62.42;;
19971;SDS011;10147;16.402;102.848;2023-12-28T12:31:13;70.97;;;48.30;;
19971;SDS011;10147;16.402;102.848;2023-12-28T12:33:44;47.92;;;36.00;;
19971;SDS011;10147;16.402;102.848;2023-12-28T12:36:17;39.08;;;29.75;;
19971;SDS011;10147;16.402;102.848;2023-12-28T12:38:50;58.97;;;40.10;;
19971;SDS011;10147;16.402;102.848;2023-12-28T12:41:20;144.50;;;96.43;;
19971;SDS011;10147;16.402;102.848;2023-12-28T12:43:50;180.77;;;117.32;;
19971;SDS011;10147;16.402;102.848;2023-12-28T12:46:20;179.85;;;122.05;;
19971;SDS011;10147;16.402;102.848;2023-12-28T12:48:54;193.65;;;119.78;;
19971;SDS011;10147;16.402;102.848;2023-12-28T12:51:26;186.68;;;118.93;;
19971;SDS011;10147;16.402;102.848;2023-12-28T12:53:57;190.88;;;121.38;;
19971;SDS011;10147;16.402;102.848;2023-12-28T12:56:31;183.43;;;119.85;;
19971;SDS011;10147;16.402;102.848;2023-12-28T12:59:02;186.88;;;121.50;;
19971;SDS011;10147;16.402;102.848;2023-12-28T13:01:32;171.52;;;114.50;;
19971;SDS011;10147;16.402;102.848;2023-12-28T13:04:03;149.40;;;97.03;;
19971;SDS011;10147;16.402;102.848;2023-12-28T13:06:35;124.32;;;85.97;;
19971;SDS011;10147;16.402;102.848;2023-12-28T13:09:05;115.75;;;80.15;;
19971;SDS011;10147;16.402;102.848;2023-12-28T13:11:35;111.35;;;73.45;;
19971;SDS011;10147;16.402;102.848;2023-12-28T13:14:06;110.70;;;71.43;;
19971;SDS011;10147;16.402;102.848;2023-12-28T13:16:36;122.03;;;75.38;;
19971;SDS011;10147;16.402;102.848;2023-12-28T13:19:08;105.68;;;70.72;;
19971;SDS011;10147;16.402;102.848;2023-12-28T13:21:40;97.97;;;67.93;;
19971;SDS011;10147;16.402;102.848;2023-12-28T13:24:10;98.03;;;66.47;;
19971;SDS011;10147;16.402;102.848;2023-12-28T13:26:40;97.22;;;65.30;;
19971;SDS011;10147;16.402;102.848;2023-12-28T13:29:10;105.60;;;66.97;;
19971;SDS011;10147;16.402;102.848;2023-12-28T13:31:40;101.15;;;66.57;;
19971;SDS011;10147;16.402;102.848;2023-12-28T13:34:10;118.10;;;88.93;;
19971;SDS011;10147;16.402;102.848;2023-12-28T13:36:40;104.63;;;68.47;;
19971;SDS011;10147;16.402;102.848;2023-12-28T13:39:10;105.90;;;70.55;;
19971;SDS011;10147;16.402;102.848;2023-12-28T13:41:43;106.85;;;70.15;;
19971;SDS011;10147;16.402;102.848;2023-12-28T13:44:13;102.07;;;69.50;;
19971;SDS011;10147;16.402;102.848;2023-12-28T13:46:44;111.63;;;73.90;;
19971;SDS011;10147;16.402;102.848;2023-12-28T13:49:14;107.15;;;71.15;;
19971;SDS011;10147;16.402;102.848;2023-12-28T13:51:44;107.93;;;71.53;;
19971;SDS011;10147;16.402;102.848;2023-12-28T13:54:15;102.85;;;72.32;;
19971;SDS011;10147;16.402;102.848;2023-12-28T13:56:45;127.20;;;88.53;;
19971;SDS011;10147;16.402;102.848;2023-12-28T13:59:17;126.18;;;95.75;;
19971;SDS011;10147;16.402;102.848;2023-12-28T14:01:46;121.15;;;94.57;;
19971;SDS011;10147;16.402;102.848;2023-12-28T14:04:17;114.13;;;84.60;;
19971;SDS011;10147;16.402;102.848;2023-12-28T14:06:47;109.93;;;84.43;;
19971;SDS011;10147;16.402;102.848;2023-12-28T14:09:17;102.88;;;81.50;;
19971;SDS011;10147;16.402;102.848;2023-12-28T14:11:49;109.82;;;83.45;;
19971;SDS011;10147;16.402;102.848;2023-12-28T14:14:18;114.25;;;87.10;;
19971;SDS011;10147;16.402;102.848;2023-12-28T14:16:50;93.03;;;66.88;;
19971;SDS011;10147;16.402;102.848;2023-12-28T14:19:22;93.00;;;66.88;;
19971;SDS011;10147;16.402;102.848;2023-12-28T14:21:52;92.78;;;69.00;;
19971;SDS011;10147;16.402;102.848;2023-12-28T14:24:22;89.07;;;64.43;;
19971;SDS011;10147;16.402;102.848;2023-12-28T14:26:54;87.35;;;65.55;;
19971;SDS011;10147;16.402;102.848;2023-12-28T14:29:24;94.47;;;64.60;;
19971;SDS011;10147;16.402;102.848;2023-12-28T14:31:55;80.82;;;58.75;;